D/T METAR WX W/DIR W/SPE G/SPE TEMP DEWP
16/01/19 04:20 EGAA 160420Z 23011KT 9999 -RA FEW018 BKN038 BKN048 06/05 Q1000 -RA SW (230°) 12.7mph 6°C 5°C
16/01/19 03:50 EGAA 160350Z 23010KT 9999 -RA SCT040 BKN048 06/05 Q1000 -RA SW (230°) 11.5mph 6°C 5°C
16/01/19 03:20 EGAA 160320Z 23010KT 9999 FEW010 SCT038 BKN047 06/05 Q1000 RERA SW (230°) 11.5mph 6°C 5°C
16/01/19 02:20 EGAA 160220Z 26014KT 9999 -RA FEW005 SCT014 BKN021 07/06 Q1000 RERA -RA W (260°) 16.1mph 7°C 6°C
16/01/19 01:50 EGAA 160150Z 21014KT 9999 -RA BKN015 BKN019 BKN037 08/06 Q1000 -RA SSW (210°) 16.1mph 8°C 6°C
16/01/19 01:20 EGAA 160120Z 21011KT 9999 BKN014 OVC019 08/06 Q1000 SSW (210°) 12.7mph 8°C 6°C
16/01/19 00:50 EGAA 160050Z 21011KT 9999 BKN015 BKN020 08/06 Q1001 SSW (210°) 12.7mph 8°C 6°C
16/01/19 00:20 EGAA 160020Z 22010KT 9999 BKN016 BKN021 08/06 Q1002 SW (220°) 11.5mph 8°C 6°C
15/01/19 23:20 EGAA 152320Z 22013KT CAVOK 08/06 Q1002 SW (220°) 15.0mph 8°C 6°C
15/01/19 22:50 EGAA 152250Z 21014G24KT 9999 FEW016 08/06 Q1003 SSW (210°) 16.1mph 27.6mph 8°C 6°C
15/01/19 21:50 EGAA 152150Z 22012KT 9999 FEW015 08/06 Q1004 SW (220°) 13.8mph 8°C 6°C
15/01/19 21:20 EGAA 152120Z 22013KT 9999 FEW016 SCT033 08/06 Q1004 SW (220°) 15.0mph 8°C 6°C
15/01/19 20:50 EGAA 152050Z 22012KT 9999 BKN035 08/06 Q1005 SW (220°) 13.8mph 8°C 6°C
15/01/19 20:20 EGAA 152020Z 22013KT 9999 BKN035 08/07 Q1005 SW (220°) 15.0mph 8°C 7°C
15/01/19 19:50 EGAA 151950Z 22013KT 9999 SCT042 08/07 Q1005 SW (220°) 15.0mph 8°C 7°C
15/01/19 19:20 EGAA 151920Z 21011KT 9999 FEW035 SCT043 08/07 Q1006 SSW (210°) 12.7mph 8°C 7°C
15/01/19 18:20 EGAA 151820Z 21011KT 9999 SCT004 SCT008 BKN016 08/07 Q1007 SSW (210°) 12.7mph 8°C 7°C
15/01/19 17:20 EGAA 151720Z 21012KT 9999 SCT006 BKN040 08/07 Q1008 SSW (210°) 13.8mph 8°C 7°C
15/01/19 16:20 EGAA 151620Z 21011KT 9999 BKN003 BKN007 BKN031 08/07 Q1008 RERA SSW (210°) 12.7mph 8°C 7°C
15/01/19 15:50 EGAA 151550Z 22013KT 9999 FEW005 SCT009 BKN014 08/07 Q1009 SW (220°) 15.0mph 8°C 7°C
15/01/19 15:20 EGAA 151520Z 21012KT 9999 SCT006 BKN010 08/07 Q1009 SSW (210°) 13.8mph 8°C 7°C
15/01/19 14:50 EGAA 151450Z 21012KT 9999 SCT006 BKN010 08/07 Q1009 SSW (210°) 13.8mph 8°C 7°C
15/01/19 14:20 EGAA 151420Z 21011KT 9999 BKN009 BKN013 08/07 Q1010 SSW (210°) 12.7mph 8°C 7°C
15/01/19 13:50 EGAA 151350Z 22011KT 9999 BKN011 BKN016 09/06 Q1010 SW (220°) 12.7mph 9°C 6°C
15/01/19 13:20 EGAA 151320Z 21011KT 9999 BKN015 09/06 Q1011 SSW (210°) 12.7mph 9°C 6°C
15/01/19 12:20 EGAA 151220Z 21013KT 9999 SCT029 BKN034 09/06 Q1012 SSW (210°) 15.0mph 9°C 6°C
15/01/19 11:50 EGAA 151150Z 22014KT 9999 FEW012 BKN039 08/06 Q1013 SW (220°) 16.1mph 8°C 6°C
15/01/19 11:20 EGAA 151120Z 22013KT 9999 FEW012 BKN041 08/06 Q1013 SW (220°) 15.0mph 8°C 6°C
15/01/19 10:50 EGAA 151050Z 22012KT 9999 FEW010 BKN044 09/06 Q1013 SW (220°) 13.8mph 9°C 6°C
15/01/19 10:20 EGAA 151020Z 21010KT 9999 FEW009 BKN043 08/06 Q1013 SSW (210°) 11.5mph 8°C 6°C
15/01/19 09:50 EGAA 150950Z 21011KT 9999 FEW008 BKN039 08/06 Q1014 SSW (210°) 12.7mph 8°C 6°C
15/01/19 08:50 EGAA 150850Z 21011KT 9999 FEW007 BKN043 08/06 Q1014 SSW (210°) 12.7mph 8°C 6°C
15/01/19 08:20 EGAA 150820Z 22014KT 9999 FEW006 BKN042 08/06 Q1014 SW (220°) 16.1mph 8°C 6°C
15/01/19 07:50 EGAA 150750Z 23014KT 9999 BKN041 08/06 Q1014 SW (230°) 16.1mph 8°C 6°C
15/01/19 07:20 EGAA 150720Z 23012KT 9999 FEW007 07/06 Q1014 SW (230°) 13.8mph 7°C 6°C
15/01/19 06:50 EGAA 150650Z 22008KT 9999 FEW006 06/06 Q1014 SW (220°) 9.2mph 6°C 6°C
15/01/19 06:20 EGAA 150620Z 22008KT CAVOK 07/06 Q1015 SW (220°) 9.2mph 7°C 6°C
15/01/19 05:50 EGAA 150550Z 21008KT CAVOK 07/06 Q1015 SSW (210°) 9.2mph 7°C 6°C
15/01/19 05:20 EGAA 150520Z 22008KT CAVOK 07/06 Q1015 SW (220°) 9.2mph 7°C 6°C
15/01/19 04:20 EGAA 150420Z 22007KT CAVOK 07/06 Q1016 SW (220°) 8.1mph 7°C 6°C
15/01/19 03:50 EGAA 150350Z 24011KT CAVOK 07/06 Q1016 WSW (240°) 12.7mph 7°C 6°C
15/01/19 03:20 EGAA 150320Z 22010KT 9999 FEW008 07/06 Q1016 SW (220°) 11.5mph 7°C 6°C
15/01/19 01:50 EGAA 150150Z 22009KT 9999 FEW004 07/06 Q1017 SW (220°) 10.4mph 7°C 6°C
15/01/19 01:20 EGAA 150120Z 21011KT 9999 FEW020 07/06 Q1017 SSW (210°) 12.7mph 7°C 6°C
15/01/19 00:20 EGAA 150020Z 22008KT 9999 FEW004 BKN013 07/07 Q1018 SW (220°) 9.2mph 7°C 7°C
14/01/19 23:50 EGAA 142350Z 24012KT 9999 OVC012 07/07 Q1018 WSW (240°) 13.8mph 7°C 7°C
14/01/19 23:20 EGAA 142320Z 23013KT 9999 FEW003 BKN010 07/06 Q1018 SW (230°) 15.0mph 7°C 6°C
14/01/19 22:50 EGAA 142250Z 23015KT 9999 SCT002 BKN045 07/07 Q1018 SW (230°) 17.3mph 7°C 7°C
14/01/19 22:20 EGAA 142220Z 23012KT 9999 FEW002 SCT010 BKN015 07/07 Q1018 SW (230°) 13.8mph 7°C 7°C
14/01/19 21:50 EGAA 142150Z 22012KT 7000 -RA FEW003 SCT008 BKN012 07/07 Q1018 -RA SW (220°) 13.8mph 7°C 7°C
14/01/19 21:20 EGAA 142120Z 22011KT 9000 SCT008 BKN013 BKN018 07/06 Q1018 SW (220°) 12.7mph 7°C 6°C
14/01/19 20:50 EGAA 142050Z 22012KT 9999 SCT011 BKN017 07/06 Q1018 SW (220°) 13.8mph 7°C 6°C
14/01/19 20:20 EGAA 142020Z 22011KT 4500 DZ SCT002 BKN005 BKN014 07/06 Q1019 DZ SW (220°) 12.7mph 7°C 6°C
14/01/19 19:50 EGAA 141950Z 22012KT 9999 SCT004 SCT008 BKN012 07/06 Q1019 SW (220°) 13.8mph 7°C 6°C
14/01/19 19:20 EGAA 141920Z 22012KT 9999 SCT007 BKN010 BKN022 07/06 Q1019 SW (220°) 13.8mph 7°C 6°C
14/01/19 18:50 EGAA 141850Z 22011KT 9999 SCT009 BKN015 BKN020 07/05 Q1019 SW (220°) 12.7mph 7°C 5°C
14/01/19 18:20 EGAA 141820Z 21011KT 9999 BKN013 07/05 Q1019 SSW (210°) 12.7mph 7°C 5°C
14/01/19 17:50 EGAA 141750Z 22010KT 9999 BKN013 07/05 Q1020 SW (220°) 11.5mph 7°C 5°C
14/01/19 17:20 EGAA 141720Z 22010KT 9999 BKN015 07/05 Q1020 SW (220°) 11.5mph 7°C 5°C
14/01/19 16:50 EGAA 141650Z 24012KT 9999 SCT014 BKN019 07/05 Q1020 WSW (240°) 13.8mph 7°C 5°C
14/01/19 15:50 EGAA 141550Z 23008KT 9999 BKN019 07/04 Q1020 SW (230°) 9.2mph 7°C 4°C
14/01/19 15:20 EGAA 141520Z 23008KT 9999 BKN025 07/04 Q1020 SW (230°) 9.2mph 7°C 4°C
14/01/19 14:20 EGAA 141420Z 24009KT 9999 SCT046 07/04 Q1021 WSW (240°) 10.4mph 7°C 4°C
14/01/19 13:50 EGAA 141350Z 25010KT 9999 SCT035 07/04 Q1021 WSW (250°) 11.5mph 7°C 4°C
14/01/19 13:20 EGAA 141320Z 25010KT 9999 SCT036 08/05 Q1021 WSW (250°) 11.5mph 8°C 5°C
14/01/19 12:50 EGAA 141250Z 26010KT 9999 SCT032 BKN038 07/05 Q1022 W (260°) 11.5mph 7°C 5°C
14/01/19 12:20 EGAA 141220Z 26010KT 9999 SCT017 BKN023 07/05 Q1022 W (260°) 11.5mph 7°C 5°C
14/01/19 11:50 EGAA 141150Z 26011KT 9999 SCT030 BKN035 07/05 Q1022 W (260°) 12.7mph 7°C 5°C
14/01/19 11:20 EGAA 141120Z 25011KT 9999 BKN040 07/04 Q1022 WSW (250°) 12.7mph 7°C 4°C
14/01/19 10:50 EGAA 141050Z 24011KT 9999 BKN043 07/03 Q1022 WSW (240°) 12.7mph 7°C 3°C
14/01/19 10:20 EGAA 141020Z 26009KT 9999 BKN043 06/04 Q1022 W (260°) 10.4mph 6°C 4°C
14/01/19 09:50 EGAA 140950Z 25006KT 9999 FEW047 05/03 Q1022 WSW (250°) 6.9mph 5°C 3°C
14/01/19 08:50 EGAA 140850Z 26007KT 9999 SCT023 BKN035 05/03 Q1021 W (260°) 8.1mph 5°C 3°C
14/01/19 08:20 EGAA 140820Z 26009KT 9999 FEW029 BKN034 06/03 Q1021 W (260°) 10.4mph 6°C 3°C
14/01/19 07:50 EGAA 140750Z 27011KT 9999 FEW030 05/03 Q1021 W (270°) 12.7mph 5°C 3°C
14/01/19 07:20 EGAA 140720Z 27014KT 9999 SCT042 06/03 Q1020 W (270°) 16.1mph 6°C 3°C
14/01/19 06:50 EGAA 140650Z 25009KT 9999 FEW022 BKN042 06/04 Q1020 WSW (250°) 10.4mph 6°C 4°C
14/01/19 06:20 EGAA 140620Z 26008KT 9999 BKN022 06/04 Q1020 W (260°) 9.2mph 6°C 4°C
14/01/19 05:50 EGAA 140550Z 25007KT 9999 SCT027 BKN033 06/04 Q1020 WSW (250°) 8.1mph 6°C 4°C
14/01/19 05:20 EGAA 140520Z 28008KT 9999 FEW026 BKN039 06/03 Q1020 W (280°) 9.2mph 6°C 3°C
14/01/19 04:50 EGAA 140450Z 29011KT 8000 SCT029 BKN035 07/03 Q1020 WNW (290°) 12.7mph 7°C 3°C
14/01/19 04:20 EGAA 140420Z AUTO 28009KT 9999 BKN042/// 06/02 Q1020 W (280°) 10.4mph 6°C 2°C
14/01/19 03:50 EGAA 140350Z AUTO 29011KT 9999 SCT028/// SCT034/// BKN039/// 07/02 Q1020 WNW (290°) 12.7mph 7°C 2°C
14/01/19 03:20 EGAA 140320Z 29013KT 9999 SCT041 06/02 Q1019 WNW (290°) 15.0mph 6°C 2°C
14/01/19 02:50 EGAA 140250Z 29013KT 9999 FEW040 06/02 Q1019 WNW (290°) 15.0mph 6°C 2°C
14/01/19 02:20 EGAA 140220Z 29013KT 9999 SCT044 07/02 Q1019 WNW (290°) 15.0mph 7°C 2°C
14/01/19 01:50 EGAA 140150Z 27010KT 9999 FEW035 BKN043 07/03 Q1019 W (270°) 11.5mph 7°C 3°C
14/01/19 01:20 EGAA 140120Z 27011KT 9999 FEW029 07/03 Q1018 W (270°) 12.7mph 7°C 3°C
14/01/19 00:50 EGAA 140050Z 29013KT 9999 FEW043 07/03 Q1017 WNW (290°) 15.0mph 7°C 3°C
13/01/19 23:50 EGAA 132350Z 29013KT 9999 FEW025 BKN038 07/04 Q1017 WNW (290°) 15.0mph 7°C 4°C
13/01/19 23:20 EGAA 132320Z 29015KT 9000 -RA SCT020 BKN025 BKN031 07/04 Q1017 -RA WNW (290°) 17.3mph 7°C 4°C
13/01/19 22:50 EGAA 132250Z 28015KT 9999 SCT024 SCT030 BKN043 07/03 Q1017 W (280°) 17.3mph 7°C 3°C
13/01/19 22:20 EGAA 132220Z 28017KT 9999 FEW028 SCT034 BKN039 07/03 Q1017 W (280°) 19.6mph 7°C 3°C
13/01/19 21:50 EGAA 132150Z 27014KT 9999 FEW020 SCT046 07/03 Q1016 W (270°) 16.1mph 7°C 3°C
13/01/19 21:20 EGAA 132120Z 26015KT 9999 FEW020 SCT047 07/03 Q1016 W (260°) 17.3mph 7°C 3°C
13/01/19 20:50 EGAA 132050Z 27014KT 9999 FEW026 SCT036 07/04 Q1016 W (270°) 16.1mph 7°C 4°C
13/01/19 20:20 EGAA 132020Z 28015KT 9999 FEW026 07/03 Q1016 W (280°) 17.3mph 7°C 3°C
13/01/19 19:50 EGAA 131950Z 29015KT 9999 FEW024 07/03 Q1015 WNW (290°) 17.3mph 7°C 3°C
13/01/19 19:20 EGAA 131920Z 28015KT 9999 FEW020 SCT030 07/03 Q1015 W (280°) 17.3mph 7°C 3°C
13/01/19 18:50 EGAA 131850Z 29016KT 9999 FEW020 SCT030 07/03 Q1015 WNW (290°) 18.4mph 7°C 3°C
13/01/19 18:20 EGAA 131820Z 29015KT 9999 SCT025 BKN031 BKN037 07/04 Q1015 WNW (290°) 17.3mph 7°C 4°C
13/01/19 17:50 EGAA 131750Z 29015KT 9000 -RA SCT025 BKN031 08/04 Q1014 -RA WNW (290°) 17.3mph 8°C 4°C
13/01/19 17:20 EGAA 131720Z 29015KT 9999 BKN025 08/03 Q1014 WNW (290°) 17.3mph 8°C 3°C
13/01/19 16:20 EGAA 131620Z 28015KT 9999 FEW037 BKN046 08/03 Q1014 W (280°) 17.3mph 8°C 3°C
13/01/19 15:50 EGAA 131550Z 30019G29KT 9999 FEW016 SCT028 08/04 Q1014 WNW (300°) 21.9mph 33.4mph 8°C 4°C
13/01/19 15:20 EGAA 131520Z 29015KT 9999 FEW020 BKN030 09/04 Q1013 WNW (290°) 17.3mph 9°C 4°C
13/01/19 14:20 EGAA 131420Z 29017KT 9999 FEW024 SCT030 09/04 Q1013 WNW (290°) 19.6mph 9°C 4°C
13/01/19 13:50 EGAA 131350Z 29014G27KT 9999 FEW022 SCT029 09/05 Q1013 WNW (290°) 16.1mph 31.1mph 9°C 5°C
13/01/19 13:20 EGAA 131320Z 31016G28KT 9999 -RA SCT018 BKN026 09/06 Q1013 -RA NW (310°) 18.4mph 32.2mph 9°C 6°C
13/01/19 12:20 EGAA 131220Z 29017KT 9999 FEW038 BKN046 09/06 Q1013 WNW (290°) 19.6mph 9°C 6°C
13/01/19 11:50 EGAA 131150Z 29023G33KT 9999 -RA SCT016 BKN024 09/07 Q1013 -RA WNW (290°) 26.5mph 38.0mph 9°C 7°C
13/01/19 11:20 EGAA 131120Z 28016KT 9999 SCT019 BKN025 10/07 Q1013 W (280°) 18.4mph 10°C 7°C
13/01/19 10:20 EGAA 131020Z 29017KT 9999 BKN019 BKN024 OVC041 10/07 Q1013 WNW (290°) 19.6mph 10°C 7°C
13/01/19 09:50 EGAA 130950Z 28019KT 240V300 9999 SCT019 BKN025 10/07 Q1013 W (280°) 21.9mph 10°C 7°C
13/01/19 09:20 EGAA 130920Z 27014KT 9999 SCT017 BKN023 10/08 Q1013 W (270°) 16.1mph 10°C 8°C
13/01/19 08:50 EGAA 130850Z 26017KT 9999 SCT013 BKN018 10/09 Q1013 W (260°) 19.6mph 10°C 9°C
13/01/19 08:20 EGAA 130820Z 26016KT 9999 -RA BKN012 09/09 Q1013 -RA W (260°) 18.4mph 9°C 9°C
13/01/19 07:20 EGAA 130720Z 25018KT 7000 -RA SCT008 BKN012 09/08 Q1013 -RA WSW (250°) 20.7mph 9°C 8°C
13/01/19 06:50 EGAA 130650Z 25018KT 6000 -DZ SCT007 BKN010 09/08 Q1013 -DZ WSW (250°) 20.7mph 9°C 8°C
13/01/19 06:20 EGAA 130620Z 25018KT 6000 -RA SCT007 BKN011 BKN016 09/08 Q1014 -RA WSW (250°) 20.7mph 9°C 8°C
13/01/19 05:50 EGAA 130550Z 25018KT 9999 SCT005 BKN008 09/08 Q1014 WSW (250°) 20.7mph 9°C 8°C
13/01/19 04:50 EGAA 130450Z 25016KT 9999 OVC009 09/07 Q1015 WSW (250°) 18.4mph 9°C 7°C
13/01/19 04:20 EGAA 130420Z AUTO 26017KT 9999 OVC009/// 09/07 Q1015 W (260°) 19.6mph 9°C 7°C
13/01/19 03:50 EGAA 130350Z 25015KT 9999 OVC010 09/07 Q1015 WSW (250°) 17.3mph 9°C 7°C
13/01/19 02:50 EGAA 130250Z 24014KT 9999 OVC010 09/07 Q1017 WSW (240°) 16.1mph 9°C 7°C
13/01/19 02:20 EGAA 130220Z 26018KT 9999 OVC013 09/07 Q1016 W (260°) 20.7mph 9°C 7°C
13/01/19 01:20 EGAA 130120Z 26017KT 9999 OVC015 09/07 Q1017 W (260°) 19.6mph 9°C 7°C
13/01/19 00:50 EGAA 130050Z 25014KT 9999 OVC016 09/07 Q1018 WSW (250°) 16.1mph 9°C 7°C
12/01/19 23:50 EGAA 122350Z 26016KT 9999 BKN016 OVC022 09/07 Q1018 W (260°) 18.4mph 9°C 7°C
12/01/19 23:20 EGAA 122320Z 25018KT 9999 BKN015 OVC020 09/07 Q1018 WSW (250°) 20.7mph 9°C 7°C
12/01/19 22:50 EGAA 122250Z 25016KT 9999 BKN015 09/08 Q1019 WSW (250°) 18.4mph 9°C 8°C
12/01/19 22:20 EGAA 122220Z 24011KT 9999 BKN014 10/08 Q1019 WSW (240°) 12.7mph 10°C 8°C
12/01/19 21:50 EGAA 122150Z 24012KT 9999 BKN011 10/08 Q1020 WSW (240°) 13.8mph 10°C 8°C
12/01/19 21:20 EGAA 122120Z 25015KT 9999 BKN012 10/08 Q1020 WSW (250°) 17.3mph 10°C 8°C
12/01/19 20:20 EGAA 122020Z 24013KT 9999 BKN014 10/08 Q1019 WSW (240°) 15.0mph 10°C 8°C
12/01/19 19:50 EGAA 121950Z 25017KT 9999 BKN014 10/08 Q1020 WSW (250°) 19.6mph 10°C 8°C
12/01/19 19:20 EGAA 121920Z 25016KT 9999 BKN017 10/08 Q1020 WSW (250°) 18.4mph 10°C 8°C
12/01/19 18:20 EGAA 121820Z 24014KT 9999 BKN021 10/08 Q1020 WSW (240°) 16.1mph 10°C 8°C
12/01/19 17:50 EGAA 121750Z 24013KT 9999 SCT023 BKN029 09/07 Q1020 WSW (240°) 15.0mph 9°C 7°C
12/01/19 17:20 EGAA 121720Z 24011KT 9999 FEW010 SCT020 09/07 Q1020 WSW (240°) 12.7mph 9°C 7°C
12/01/19 16:50 EGAA 121650Z 24011KT 9999 FEW012 SCT022 09/07 Q1020 WSW (240°) 12.7mph 9°C 7°C
12/01/19 15:50 EGAA 121550Z 27013KT 9999 FEW016 SCT024 11/07 Q1020 W (270°) 15.0mph 11°C 7°C
12/01/19 15:20 EGAA 121520Z 28016KT 9999 FEW012 SCT022 11/08 Q1019 W (280°) 18.4mph 11°C 8°C
12/01/19 14:50 EGAA 121450Z 28017KT 9999 FEW012 SCT020 11/08 Q1020 W (280°) 19.6mph 11°C 8°C